Terminal Aerodrome Forecast
Issued by NWS

Home | Current Version | Previous Version | Text Only | Print | Product List | Glossary On
Versions: 1 2 3 4 5 6 7 8 9 10 11 12 13 14 15 16 17 18 19 20 21 22 23 24
839
FTUS43 KPAH 202330
TAFCGI
TAF
KCGI 202330Z 2100/2124 21010KT 6SM -RA BR SCT030 OVC060
      TEMPO 2100/2102 4SM -RA BR OVC030
     FM210200 25007KT P6SM SCT035 BKN070
     FM211100 31006KT P6SM SCT070
     FM211400 33012KT P6SM SCT040=

USA.gov is the U.S. government's official web portal to all federal, state and local government web resources and services.